createdAt,value
2019-04-10T00:00:35.157Z,57.08
2019-04-10T00:03:04.002Z,56.19
2019-04-10T00:05:32.671Z,57.26
2019-04-10T00:08:01.856Z,59.65
2019-04-10T00:10:30.608Z,60.09
2019-04-10T00:12:59.086Z,58.06
2019-04-10T00:15:28.429Z,56.97
2019-04-10T00:17:57.778Z,57.37
2019-04-10T00:20:26.716Z,56.79
2019-04-10T00:22:55.292Z,59.25
2019-04-10T00:25:24.448Z,56.08
2019-04-10T00:27:53.067Z,56.51
2019-04-10T00:30:21.548Z,57.10
2019-04-10T00:32:50.213Z,57.34
2019-04-10T00:35:19.281Z,60.60
2019-04-10T00:37:47.815Z,60.43
2019-04-10T00:40:17.320Z,57.32
2019-04-10T00:42:45.947Z,57.19
2019-04-10T00:45:15.429Z,58.12
2019-04-10T00:47:44.095Z,58.88
2019-04-10T00:50:12.734Z,57.50
2019-04-10T00:52:41.251Z,58.93
2019-04-10T00:55:09.956Z,59.18
2019-04-10T00:57:39.321Z,57.41
2019-04-10T01:00:08.570Z,57.24
2019-04-10T01:02:37.117Z,58.59
2019-04-10T01:05:06.944Z,57.14
2019-04-10T01:07:39.803Z,57.78
2019-04-10T01:10:08.176Z,58.04
2019-04-10T01:12:36.884Z,57.50
2019-04-10T01:15:07.186Z,57.55
2019-04-10T01:17:35.683Z,57.55
2019-04-10T01:20:09.082Z,57.46
2019-04-10T01:22:37.696Z,57.38
2019-04-10T01:25:08.201Z,57.62
2019-04-10T01:27:36.777Z,58.44
2019-04-10T01:30:07.209Z,58.10
2019-04-10T01:32:36.410Z,58.27
2019-04-10T01:35:06.461Z,57.97
2019-04-10T01:37:46.724Z,57.93
2019-04-10T01:40:07.132Z,58.39
2019-04-10T01:42:36.751Z,58.39
2019-04-10T01:45:07.205Z,58.53
2019-04-10T01:47:35.710Z,58.34
2019-04-10T01:50:04.736Z,62.84
2019-04-10T01:52:33.343Z,58.80
2019-04-10T01:55:03.292Z,59.37
2019-04-10T01:57:32.491Z,62.83
2019-04-10T02:00:00.996Z,59.40
2019-04-10T02:02:31.611Z,60.65
2019-04-10T02:05:00.644Z,61.54
2019-04-10T02:07:29.964Z,59.95
2019-04-10T02:09:59.524Z,62.49
2019-04-10T02:12:28.483Z,62.85
2019-04-10T02:14:57.042Z,59.52
2019-04-10T02:17:25.496Z,60.08
2019-04-10T02:19:54.562Z,63.09
2019-04-10T02:22:23.120Z,60.77
2019-04-10T02:24:51.624Z,62.73
2019-04-10T02:27:20.426Z,63.61
2019-04-10T02:29:50.041Z,63.91
2019-04-10T02:32:19.335Z,61.09
2019-04-10T02:34:50.604Z,60.96
2019-04-10T02:37:19.389Z,61.10
2019-04-10T02:39:52.193Z,62.88
2019-04-10T02:42:18.677Z,62.06
2019-04-10T02:44:48.289Z,61.71
2019-04-10T02:47:19.242Z,62.98
2019-04-10T02:49:49.267Z,61.42
2019-04-10T02:52:17.825Z,62.72
2019-04-10T02:54:46.371Z,61.18
2019-04-10T02:57:14.801Z,63.00
2019-04-10T02:59:43.750Z,63.13
2019-04-10T03:02:14.048Z,63.33
2019-04-10T03:04:42.704Z,63.27
2019-04-10T03:07:11.621Z,63.13
2019-04-10T03:09:52.796Z,61.99
2019-04-10T03:12:12.541Z,62.10
2019-04-10T03:14:41.550Z,63.21
2019-04-10T03:17:12.158Z,62.56
2019-04-10T03:19:41.362Z,62.92
2019-04-10T03:22:10.516Z,63.25
2019-04-10T03:24:40.163Z,63.50
2019-04-10T03:27:08.781Z,66.76
2019-04-10T03:29:38.009Z,64.93
2019-04-10T03:32:28.519Z,64.26
2019-04-10T03:34:56.640Z,63.57
2019-04-10T03:37:26.428Z,64.78
2019-04-10T03:39:55.317Z,67.28
2019-04-10T03:42:23.814Z,63.53
2019-04-10T03:44:52.322Z,63.16
2019-04-10T03:47:20.844Z,63.62
2019-04-10T03:49:49.844Z,65.09
2019-04-10T03:52:19.006Z,64.00
2019-04-10T03:54:48.142Z,65.06
2019-04-10T03:57:16.780Z,63.66
2019-04-10T03:59:45.511Z,63.61
2019-04-10T04:02:14.039Z,64.44
2019-04-10T04:04:42.496Z,63.55
2019-04-10T04:07:11.295Z,65.57
2019-04-10T04:09:39.868Z,65.87
2019-04-10T04:12:08.493Z,66.91
2019-04-10T04:14:37.069Z,65.82
2019-04-10T04:17:06.104Z,67.58
2019-04-10T04:19:34.750Z,64.32
2019-04-10T04:22:03.996Z,67.10
2019-04-10T04:24:33.565Z,66.66
2019-04-10T04:27:02.775Z,65.06
2019-04-10T04:29:32.298Z,67.91
2019-04-10T04:32:01.257Z,65.44
2019-04-10T04:34:29.892Z,63.75
2019-04-10T04:36:58.415Z,66.55
2019-04-10T04:39:28.940Z,65.39
2019-04-10T04:41:57.218Z,65.06
2019-04-10T04:44:25.734Z,67.00
2019-04-10T04:46:54.273Z,64.41
2019-04-10T04:49:22.767Z,64.82
2019-04-10T04:51:51.253Z,64.14
2019-04-10T04:54:19.737Z,65.83
2019-04-10T04:56:48.405Z,66.85
2019-04-10T04:59:16.915Z,65.42
2019-04-10T05:01:45.417Z,64.55
2019-04-10T05:04:13.906Z,63.57
2019-04-10T05:06:42.409Z,63.16
2019-04-10T05:09:11.270Z,63.58
2019-04-10T05:11:39.883Z,64.99
2019-04-10T05:14:08.349Z,62.70
2019-04-10T05:16:36.911Z,63.01
2019-04-10T05:19:05.486Z,63.16
2019-04-10T05:21:35.031Z,61.89
2019-04-10T05:24:03.648Z,61.40
2019-04-10T05:26:32.374Z,62.24
2019-04-10T05:29:00.915Z,61.95
2019-04-10T05:31:29.450Z,61.94
2019-04-10T05:33:57.926Z,62.36
2019-04-10T05:36:26.466Z,60.67
2019-04-10T05:38:54.969Z,61.07
2019-04-10T05:41:24.382Z,61.15
2019-04-10T05:43:53.044Z,60.60
2019-04-10T05:46:22.799Z,60.14
2019-04-10T05:48:52.589Z,60.16
2019-04-10T05:51:21.323Z,59.63
2019-04-10T05:53:53.861Z,59.58
2019-04-10T05:56:22.520Z,59.73
2019-04-10T05:58:51.228Z,59.38
2019-04-10T06:01:30.451Z,59.39
2019-04-10T06:03:50.269Z,58.93
2019-04-10T06:06:19.975Z,58.84
2019-04-10T06:08:49.086Z,58.70
2019-04-10T06:11:17.657Z,58.50
2019-04-10T06:13:46.203Z,58.53
2019-04-10T06:16:15.279Z,58.13
2019-04-10T06:18:45.081Z,57.70
2019-04-10T06:21:14.653Z,57.92
2019-04-10T06:23:43.498Z,57.55
2019-04-10T06:26:12.653Z,57.40
2019-04-10T06:28:42.221Z,57.34
2019-04-10T06:31:10.800Z,57.02
2019-04-10T06:33:40.289Z,56.61
2019-04-10T06:36:09.219Z,56.70
2019-04-10T06:38:37.741Z,56.16
2019-04-10T06:41:06.317Z,55.72
2019-04-10T06:43:35.038Z,55.00
2019-04-10T06:46:04.337Z,54.51
2019-04-10T06:48:34.102Z,55.09
2019-04-10T06:51:03.910Z,55.36
2019-04-10T06:53:33.197Z,53.58
2019-04-10T06:56:02.948Z,53.92
2019-04-10T06:58:31.883Z,54.45
2019-04-10T07:01:01.766Z,52.96
2019-04-10T07:03:46.938Z,54.11
2019-04-10T07:06:09.694Z,52.32
2019-04-10T07:08:31.979Z,52.00
2019-04-10T07:11:07.781Z,53.24
2019-04-10T07:13:30.868Z,50.48
2019-04-10T07:15:59.957Z,50.78
2019-04-10T07:18:28.532Z,49.28
2019-04-10T07:21:00.729Z,48.26
2019-04-10T07:23:30.079Z,47.51
2019-04-10T07:25:58.363Z,50.81
2019-04-10T07:28:27.816Z,48.98
2019-04-10T07:30:59.400Z,50.54
2019-04-10T07:33:26.781Z,49.46
2019-04-10T07:35:56.604Z,48.57
2019-04-10T07:38:25.318Z,48.08
2019-04-10T07:40:54.720Z,49.94
2019-04-10T07:43:27.194Z,48.98
2019-04-10T07:45:56.604Z,46.48
2019-04-10T07:48:25.017Z,48.54
2019-04-10T07:50:53.657Z,47.06
2019-04-10T07:53:22.629Z,46.85
2019-04-10T07:56:01.434Z,46.81
2019-04-10T07:58:21.565Z,46.32
2019-04-10T08:00:51.316Z,45.89
2019-04-10T08:03:20.827Z,46.10
2019-04-10T08:05:50.295Z,47.47
2019-04-10T08:08:19.382Z,46.86
2019-04-10T08:10:48.824Z,47.18
2019-04-10T08:13:17.433Z,46.77
2019-04-10T08:15:45.914Z,45.47
2019-04-10T08:18:14.691Z,46.32
2019-04-10T08:20:43.539Z,45.76
2019-04-10T08:23:12.332Z,45.35
2019-04-10T08:25:41.033Z,44.66
2019-04-10T08:28:09.586Z,43.03
2019-04-10T08:30:38.085Z,45.45
2019-04-10T08:33:07.687Z,41.70
2019-04-10T08:35:36.375Z,44.12
2019-04-10T08:38:05.484Z,44.12
2019-04-10T08:40:34.263Z,42.81
2019-04-10T08:43:04.046Z,43.39
2019-04-10T08:45:40.294Z,41.44
2019-04-10T08:48:03.608Z,41.84
2019-04-10T08:50:32.333Z,43.83
2019-04-10T08:53:01.982Z,43.31
2019-04-10T08:55:30.676Z,41.56
2019-04-10T08:57:59.231Z,41.92
2019-04-10T09:00:28.823Z,42.52
2019-04-10T09:02:58.162Z,40.55
2019-04-10T09:05:27.824Z,40.90
2019-04-10T09:07:56.939Z,41.90
2019-04-10T09:10:26.034Z,38.31
2019-04-10T09:12:55.901Z,40.66
2019-04-10T09:15:25.778Z,39.95
2019-04-10T09:17:54.272Z,35.91
2019-04-10T09:20:22.752Z,39.13
2019-04-10T09:23:13.375Z,38.56
2019-04-10T09:25:21.458Z,32.36
2019-04-10T09:27:49.934Z,35.61
2019-04-10T09:30:18.528Z,36.88
2019-04-10T09:32:46.971Z,30.73
2019-04-10T09:35:16.345Z,33.14
2019-04-10T09:37:46.188Z,33.97
2019-04-10T09:40:16.129Z,34.02
2019-04-10T09:42:45.868Z,28.25
2019-04-10T09:45:15.623Z,32.53
2019-04-10T09:47:44.283Z,33.41
2019-04-10T09:50:13.274Z,29.40
2019-04-10T09:52:41.874Z,28.60
2019-04-10T09:55:11.740Z,29.56
2019-04-10T09:57:40.876Z,30.55
2019-04-10T10:00:10.623Z,30.16
2019-04-10T10:02:40.257Z,28.18
2019-04-10T10:05:09.209Z,28.01
2019-04-10T10:07:38.970Z,28.02
2019-04-10T10:10:08.818Z,26.64
2019-04-10T10:12:38.532Z,30.84
2019-04-10T10:15:09.576Z,30.35
2019-04-10T10:17:39.203Z,25.77
2019-04-10T10:20:09.321Z,26.67
2019-04-10T10:22:38.964Z,22.59
2019-04-10T10:25:09.611Z,25.03
2019-04-10T10:27:38.559Z,26.29
2019-04-10T10:30:09.549Z,18.09
2019-04-10T10:32:39.263Z,22.47
2019-04-10T10:35:09.299Z,25.50
2019-04-10T10:37:38.872Z,17.64
2019-04-10T10:40:09.957Z,21.57
2019-04-10T10:42:40.231Z,24.09
2019-04-10T10:45:10.518Z,23.25
2019-04-10T10:47:40.328Z,23.96
2019-04-10T10:50:09.890Z,23.90
2019-04-10T10:52:38.348Z,24.33
2019-04-10T10:55:07.751Z,23.66
2019-04-10T10:57:37.358Z,25.46
2019-04-10T11:00:08.346Z,24.71
2019-04-10T11:02:38.056Z,25.40
2019-04-10T11:05:07.310Z,26.71
2019-04-10T11:07:36.146Z,26.71
2019-04-10T11:10:06.965Z,26.66
2019-04-10T11:12:35.795Z,27.02
2019-04-10T11:15:07.810Z,26.63
2019-04-10T11:17:37.970Z,26.84
2019-04-10T11:20:10.132Z,26.79
2019-04-10T11:22:39.737Z,27.36
2019-04-10T11:25:08.915Z,27.88
2019-04-10T11:27:39.194Z,28.79
2019-04-10T11:30:10.029Z,29.37
2019-04-10T11:32:38.766Z,30.05
2019-04-10T11:35:08.734Z,31.10
2019-04-10T11:37:44.433Z,30.99
2019-04-10T11:40:08.903Z,30.56
2019-04-10T11:42:39.780Z,30.40
2019-04-10T11:45:10.725Z,30.69
2019-04-10T11:47:39.825Z,30.36
2019-04-10T11:50:13.512Z,31.01
2019-04-10T11:52:46.617Z,32.59
2019-04-10T11:55:15.982Z,31.42
2019-04-10T11:57:42.079Z,32.30
2019-04-10T12:00:17.479Z,30.74
2019-04-10T12:02:47.023Z,31.50
2019-04-10T12:08:27.996Z,33.85
2019-04-10T12:12:44.028Z,31.74
2019-04-10T12:15:12.720Z,31.79
2019-04-10T12:17:43.087Z,32.72
2019-04-10T12:20:11.803Z,32.46
2019-04-10T12:22:40.747Z,32.36
2019-04-10T12:25:10.210Z,32.75
2019-04-10T12:27:39.101Z,32.08
2019-04-10T12:30:11.141Z,31.84
2019-04-10T12:32:40.970Z,32.39
2019-04-10T12:35:10.858Z,31.85
2019-04-10T12:37:39.581Z,32.16
2019-04-10T12:40:09.752Z,32.07
2019-04-10T12:42:38.765Z,32.38
2019-04-10T12:45:08.309Z,32.46
2019-04-10T12:47:37.690Z,33.40
2019-04-10T12:50:09.687Z,33.54
2019-04-10T12:52:45.018Z,34.47
2019-04-10T12:55:12.319Z,33.48
2019-04-10T12:57:41.796Z,34.15
2019-04-10T13:00:13.855Z,34.02
2019-04-10T13:02:42.705Z,34.05
2019-04-10T13:05:11.474Z,33.21
2019-04-10T13:07:40.073Z,32.87
2019-04-10T13:10:08.818Z,32.77
2019-04-10T13:12:37.662Z,33.97
2019-04-10T13:15:08.243Z,34.09
2019-04-10T13:17:36.784Z,33.73
2019-04-10T13:20:11.460Z,34.70
2019-04-10T13:22:40.220Z,33.31
2019-04-10T13:25:10.149Z,33.52
2019-04-10T13:27:39.043Z,34.07
2019-04-10T13:30:12.925Z,33.61
2019-04-10T13:32:40.784Z,34.14
2019-04-10T13:35:10.775Z,34.13
2019-04-10T13:37:39.282Z,33.94
2019-04-10T13:40:08.317Z,33.69
2019-04-10T13:42:37.257Z,33.01
2019-04-10T13:45:07.989Z,33.20
2019-04-10T13:47:36.615Z,32.90
2019-04-10T13:50:08.753Z,33.30
2019-04-10T13:52:40.475Z,32.96
2019-04-10T13:55:10.222Z,33.17
2019-04-10T13:57:39.342Z,34.23
2019-04-10T14:00:11.297Z,33.72
2019-04-10T14:02:39.873Z,33.67
2019-04-10T14:05:11.624Z,33.80
2019-04-10T14:07:40.406Z,33.98
2019-04-10T14:10:10.542Z,34.46
2019-04-10T14:12:39.058Z,34.93
2019-04-10T14:15:07.956Z,34.06
2019-04-10T14:17:37.611Z,34.55
2019-04-10T14:20:07.054Z,34.36
2019-04-10T14:22:37.941Z,35.07
2019-04-10T14:25:09.622Z,34.65
2019-04-10T14:27:38.551Z,34.66
2019-04-10T14:30:11.308Z,34.94
2019-04-10T14:32:39.978Z,34.23
2019-04-10T14:35:09.967Z,34.32
2019-04-10T14:37:38.562Z,36.41
2019-04-10T14:40:09.582Z,36.88
2019-04-10T14:42:38.409Z,37.23
2019-04-10T14:45:09.000Z,36.28
2019-04-10T14:47:37.566Z,36.36
2019-04-10T14:50:07.520Z,37.38
2019-04-10T14:52:37.170Z,36.59
2019-04-10T14:55:06.382Z,37.58
2019-04-10T14:57:35.073Z,37.50
2019-04-10T15:00:07.111Z,35.97
2019-04-10T15:02:36.889Z,35.91
2019-04-10T15:05:08.087Z,37.23
2019-04-10T15:07:37.302Z,36.45
2019-04-10T15:10:07.249Z,35.65
2019-04-10T15:12:35.755Z,35.86
2019-04-10T15:15:05.576Z,35.62
2019-04-10T15:17:34.073Z,35.78
2019-04-10T15:20:02.838Z,35.42
2019-04-10T15:22:31.785Z,34.89
2019-04-10T15:25:01.412Z,35.51
2019-04-10T15:27:30.236Z,34.69
2019-04-10T15:29:58.751Z,35.93
2019-04-10T15:32:27.390Z,35.99
2019-04-10T15:34:55.976Z,35.28
2019-04-10T15:37:24.913Z,35.86
2019-04-10T15:39:53.968Z,36.92
2019-04-10T15:42:23.789Z,36.79
2019-04-10T15:44:52.452Z,39.04
2019-04-10T15:47:23.144Z,37.64
2019-04-10T15:49:51.670Z,37.70
2019-04-10T15:52:20.347Z,38.42
2019-04-10T15:54:49.946Z,37.27
2019-04-10T15:57:18.814Z,36.64
2019-04-10T15:59:48.307Z,36.86
2019-04-10T16:02:16.987Z,37.70
2019-04-10T16:04:45.606Z,37.03
2019-04-10T16:07:14.953Z,36.74
2019-04-10T16:09:49.902Z,37.47
2019-04-10T16:12:16.562Z,37.25
2019-04-10T16:14:46.472Z,37.28
2019-04-10T16:17:31.915Z,36.60
2019-04-10T16:20:04.984Z,36.38
2019-04-10T16:22:41.303Z,37.36
2019-04-10T16:25:11.830Z,37.45
2019-04-10T16:27:41.236Z,36.36
2019-04-10T16:30:14.429Z,36.13
2019-04-10T16:32:44.234Z,36.79
2019-04-10T16:35:13.868Z,36.40
2019-04-10T16:37:42.551Z,36.02
2019-04-10T16:40:11.790Z,36.08
2019-04-10T16:42:41.809Z,36.04
2019-04-10T16:45:10.632Z,36.26
2019-04-10T16:47:39.146Z,36.17
2019-04-10T16:50:08.907Z,36.29
2019-04-10T16:52:38.888Z,37.12
2019-04-10T16:55:08.774Z,38.02
2019-04-10T16:57:37.238Z,38.43
2019-04-10T17:00:07.471Z,37.66
2019-04-10T17:02:36.075Z,38.05
2019-04-10T17:05:08.222Z,38.07
2019-04-10T17:07:37.328Z,37.25
2019-04-10T17:10:16.676Z,38.60
2019-04-10T17:12:42.138Z,38.56
2019-04-10T17:15:12.208Z,37.98
2019-04-10T17:17:40.761Z,37.32
2019-04-10T17:20:09.694Z,37.63
2019-04-10T17:22:43.870Z,38.10
2019-04-10T17:25:09.653Z,36.98
2019-04-10T17:27:39.276Z,37.17
2019-04-10T17:30:09.565Z,36.81
2019-04-10T17:32:38.492Z,36.42
2019-04-10T17:35:09.566Z,36.70
2019-04-10T17:37:38.571Z,36.95
2019-04-10T17:40:23.182Z,36.39
2019-04-10T17:42:41.139Z,37.15
2019-04-10T17:45:10.047Z,37.27
2019-04-10T17:47:38.918Z,37.03
2019-04-10T17:50:09.742Z,38.35
2019-04-10T17:52:38.247Z,38.35
2019-04-10T17:55:07.877Z,39.25
2019-04-10T17:57:40.404Z,39.11
2019-04-10T18:00:27.064Z,38.26
2019-04-10T18:02:57.065Z,38.41
2019-04-10T18:05:26.610Z,37.17
2019-04-10T18:07:55.091Z,37.40
2019-04-10T18:10:24.695Z,37.84
2019-04-10T18:12:54.598Z,37.88
2019-04-10T18:15:24.148Z,37.21
2019-04-10T18:17:53.433Z,37.76
2019-04-10T18:20:22.127Z,37.14
2019-04-10T18:22:51.844Z,37.22
2019-04-10T18:25:20.471Z,37.73
2019-04-10T18:27:49.667Z,37.15
2019-04-10T18:30:18.249Z,37.46
2019-04-10T18:32:47.636Z,37.85
2019-04-10T18:35:16.491Z,37.68
2019-04-10T18:37:45.007Z,38.53
2019-04-10T18:40:14.822Z,38.33
2019-04-10T18:42:43.465Z,37.70
2019-04-10T18:45:13.875Z,38.42
2019-04-10T18:47:42.376Z,37.70
2019-04-10T18:50:12.027Z,37.75
2019-04-10T18:52:40.563Z,37.80
2019-04-10T18:55:09.144Z,38.50
2019-04-10T18:57:37.613Z,39.11
2019-04-10T19:00:12.818Z,38.69
2019-04-10T19:02:48.902Z,38.20
2019-04-10T19:05:19.416Z,39.48
2019-04-10T19:07:48.260Z,39.05
2019-04-10T19:10:17.840Z,39.21
2019-04-10T19:12:46.390Z,38.65
2019-04-10T19:15:15.004Z,40.02
2019-04-10T19:17:43.548Z,40.09
2019-04-10T19:20:13.436Z,39.04
2019-04-10T19:22:42.490Z,39.55
2019-04-10T19:25:11.297Z,39.59
2019-04-10T19:27:40.243Z,40.71
2019-04-10T19:30:17.580Z,40.80
2019-04-10T19:32:46.063Z,40.76
2019-04-10T19:35:19.909Z,42.09
2019-04-10T19:37:51.215Z,41.79
2019-04-10T19:40:19.392Z,42.60
2019-04-10T19:42:47.963Z,41.20
2019-04-10T19:45:17.692Z,40.91
2019-04-10T19:47:46.408Z,41.54
2019-04-10T19:50:15.265Z,42.32
2019-04-10T19:52:44.636Z,42.62
2019-04-10T19:55:13.566Z,40.96
2019-04-10T19:57:42.213Z,40.76
2019-04-10T20:00:12.558Z,42.48
2019-04-10T20:02:41.710Z,43.77
2019-04-10T20:05:10.738Z,41.89
2019-04-10T20:07:39.254Z,41.33
2019-04-10T20:10:08.800Z,42.26
2019-04-10T20:12:37.443Z,43.98
2019-04-10T20:15:07.344Z,43.50
2019-04-10T20:17:35.850Z,42.62
2019-04-10T20:20:06.891Z,42.03
2019-04-10T20:22:35.514Z,42.62
2019-04-10T20:25:04.188Z,43.04
2019-04-10T20:27:32.682Z,44.71
2019-04-10T20:30:01.580Z,45.27
2019-04-10T20:32:30.334Z,45.26
2019-04-10T20:34:59.999Z,44.56
2019-04-10T20:37:29.071Z,43.51
2019-04-10T20:39:58.105Z,44.43
2019-04-10T20:42:26.744Z,43.69
2019-04-10T20:44:55.199Z,43.58
2019-04-10T20:47:24.606Z,45.24
2019-04-10T20:49:53.371Z,44.37
2019-04-10T20:52:22.069Z,45.16
2019-04-10T20:54:50.654Z,45.16
2019-04-10T20:57:19.487Z,46.19
2019-04-10T20:59:48.888Z,45.01
2019-04-10T21:02:18.069Z,46.08
2019-04-10T21:04:54.591Z,46.78
2019-04-10T21:07:16.924Z,45.26
2019-04-10T21:09:45.449Z,45.36
2019-04-10T21:12:18.102Z,45.07
2019-04-10T21:14:44.102Z,45.23
2019-04-10T21:17:12.611Z,45.00
2019-04-10T21:19:41.084Z,45.71
2019-04-10T21:22:09.625Z,46.23
2019-04-10T21:24:38.147Z,45.02
2019-04-10T21:27:06.587Z,44.40
2019-04-10T21:29:46.450Z,46.50
2019-04-10T21:32:17.172Z,45.90
2019-04-10T21:34:47.329Z,47.27
2019-04-10T21:37:15.902Z,47.26
2019-04-10T21:39:44.334Z,45.75
2019-04-10T21:42:20.093Z,45.74
2019-04-10T21:44:43.060Z,45.92
2019-04-10T21:47:11.569Z,47.36
2019-04-10T21:49:40.099Z,46.89
2019-04-10T21:52:10.191Z,48.31
2019-04-10T21:54:48.813Z,47.99
2019-04-10T21:57:09.657Z,47.68
2019-04-10T21:59:38.940Z,47.57
2019-04-10T22:02:08.149Z,48.24
2019-04-10T22:04:36.696Z,48.23
2019-04-10T22:07:09.877Z,47.77
2019-04-10T22:09:41.592Z,48.33
2019-04-10T22:12:23.707Z,47.00
2019-04-10T22:14:41.992Z,46.41
2019-04-10T22:17:10.938Z,46.33
2019-04-10T22:19:39.601Z,46.05
2019-04-10T22:22:08.386Z,45.92
2019-04-10T22:24:36.873Z,46.03
2019-04-10T22:27:05.348Z,45.79
2019-04-10T22:29:34.748Z,47.50
2019-04-10T22:32:04.126Z,46.63
2019-04-10T22:34:32.789Z,45.10
2019-04-10T22:37:02.220Z,45.11
2019-04-10T22:39:31.697Z,46.79
2019-04-10T22:42:01.127Z,45.02
2019-04-10T22:44:38.479Z,44.91
2019-04-10T22:47:00.962Z,47.04
2019-04-10T22:49:29.448Z,45.72
2019-04-10T22:51:58.349Z,46.85
2019-04-10T22:54:27.061Z,47.19
2019-04-10T22:56:56.554Z,45.57
2019-04-10T22:59:26.300Z,46.39
2019-04-10T23:02:02.453Z,47.68
2019-04-10T23:04:25.084Z,46.17
2019-04-10T23:06:53.566Z,46.22
2019-04-10T23:09:22.398Z,48.75
2019-04-10T23:11:51.979Z,47.19
2019-04-10T23:14:20.776Z,49.48
2019-04-10T23:16:50.414Z,49.07
2019-04-10T23:19:20.068Z,47.18
2019-04-10T23:21:49.151Z,48.79
2019-04-10T23:24:17.843Z,46.81
2019-04-10T23:26:47.065Z,48.47
2019-04-10T23:29:15.889Z,48.90
2019-04-10T23:31:44.413Z,48.20
2019-04-10T23:34:13.013Z,47.61
2019-04-10T23:36:42.403Z,47.56
2019-04-10T23:39:12.168Z,50.42
2019-04-10T23:41:42.004Z,48.82
2019-04-10T23:44:11.038Z,51.19
2019-04-10T23:46:39.660Z,51.09
2019-04-10T23:49:08.994Z,52.13
2019-04-10T23:51:37.650Z,52.04
2019-04-10T23:54:06.138Z,51.36
2019-04-10T23:56:35.657Z,49.04
2019-04-10T23:59:04.573Z,49.44
